createdAt,value
2022-08-02T00:00:16.620Z,2.60
2022-08-02T00:02:45.024Z,2.47
2022-08-02T00:05:17.216Z,2.60
2022-08-02T00:07:45.050Z,2.70
2022-08-02T00:10:13.789Z,2.58
2022-08-02T00:12:41.627Z,2.75
2022-08-02T00:15:16.347Z,2.78
2022-08-02T00:17:45.569Z,2.45
2022-08-02T00:20:16.820Z,2.63
2022-08-02T00:22:45.095Z,2.65
2022-08-02T00:25:13.026Z,2.90
2022-08-02T00:27:40.944Z,3.10
2022-08-02T00:30:09.905Z,2.90
2022-08-02T00:32:37.723Z,2.45
2022-08-02T00:35:06.393Z,2.93
2022-08-02T00:37:40.098Z,2.80
2022-08-02T00:40:09.195Z,3.45
2022-08-02T00:42:37.164Z,2.88
2022-08-02T00:45:05.573Z,3.00
2022-08-02T00:47:33.380Z,2.73
2022-08-02T00:50:01.626Z,2.80
2022-08-02T00:52:29.510Z,2.95
2022-08-02T00:54:58.717Z,2.55
2022-08-02T00:57:26.573Z,2.37
2022-08-02T00:59:54.375Z,2.80
2022-08-02T01:02:22.483Z,2.60
2022-08-02T01:04:50.377Z,2.53
2022-08-02T01:07:18.735Z,2.60
2022-08-02T01:09:49.320Z,2.55
2022-08-02T01:12:18.591Z,2.67
2022-08-02T01:14:50.057Z,2.63
2022-08-02T01:17:24.090Z,2.63
2022-08-02T01:20:01.642Z,2.87
2022-08-02T01:23:03.565Z,2.83
2022-08-02T01:25:54.763Z,2.83
2022-08-02T01:28:37.385Z,2.90
2022-08-02T01:31:17.947Z,3.10
2022-08-02T01:33:52.166Z,3.20
2022-08-02T01:36:23.292Z,3.30
2022-08-02T01:38:54.011Z,3.20
2022-08-02T01:41:25.153Z,3.50
2022-08-02T01:43:58.940Z,3.30
2022-08-02T01:46:29.041Z,3.10
2022-08-02T01:48:59.209Z,3.50
2022-08-02T01:51:43.171Z,3.40
2022-08-02T01:54:16.605Z,3.43
2022-08-02T01:56:46.621Z,3.70
2022-08-02T01:59:19.832Z,3.17
2022-08-02T02:01:50.187Z,3.60
2022-08-02T02:04:18.774Z,3.07
2022-08-02T02:06:48.700Z,4.00
2022-08-02T02:09:17.271Z,3.67
2022-08-02T02:12:09.478Z,3.43
2022-08-02T02:14:38.431Z,3.17
2022-08-02T02:17:08.189Z,3.10
2022-08-02T02:19:59.208Z,3.43
2022-08-02T02:22:27.377Z,2.80
2022-08-02T02:24:55.548Z,3.43
2022-08-02T02:27:24.952Z,2.90
2022-08-02T02:29:55.890Z,3.40
2022-08-02T02:32:26.482Z,3.40
2022-08-02T02:34:56.605Z,3.23
2022-08-02T02:37:27.689Z,3.17
2022-08-02T02:39:58.164Z,3.03
2022-08-02T02:42:31.306Z,3.10
2022-08-02T02:45:01.206Z,3.50
2022-08-02T02:47:40.348Z,3.30
2022-08-02T02:50:10.850Z,3.00
2022-08-02T02:52:40.873Z,3.40
2022-08-02T02:55:11.170Z,4.00
2022-08-02T02:57:40.038Z,3.43
2022-08-02T03:00:12.807Z,3.30
2022-08-02T03:02:42.461Z,2.90
2022-08-02T03:05:12.003Z,3.43
2022-08-02T03:07:40.636Z,3.60
2022-08-02T03:10:09.939Z,3.60
2022-08-02T03:12:38.467Z,3.30
2022-08-02T03:15:11.421Z,3.93
2022-08-02T03:17:43.601Z,3.60
2022-08-02T03:20:14.191Z,3.37
2022-08-02T03:22:42.876Z,3.37
2022-08-02T03:25:11.418Z,3.40
2022-08-02T03:27:39.500Z,3.40
2022-08-02T03:30:12.758Z,3.50
2022-08-02T03:32:42.411Z,3.57
2022-08-02T03:35:13.347Z,4.00
2022-08-02T03:37:42.045Z,3.53
2022-08-02T03:40:13.672Z,3.87
2022-08-02T03:42:42.399Z,3.90
2022-08-02T03:45:14.805Z,3.80
2022-08-02T03:47:44.223Z,3.70
2022-08-02T03:50:13.729Z,4.20
2022-08-02T03:52:43.471Z,4.20
2022-08-02T03:55:12.565Z,4.03
2022-08-02T03:57:41.706Z,4.10
2022-08-02T04:00:14.125Z,3.90
2022-08-02T04:02:42.159Z,3.60
2022-08-02T04:05:10.441Z,3.83
2022-08-02T04:08:34.490Z,3.80
2022-08-02T04:10:26.901Z,3.57
2022-08-02T04:12:55.659Z,3.90
2022-08-02T04:15:25.765Z,4.10
2022-08-02T04:17:57.826Z,3.80
2022-08-02T04:20:29.485Z,3.60
2022-08-02T04:23:01.511Z,3.60
2022-08-02T04:25:35.776Z,3.83
2022-08-02T04:28:17.027Z,3.83
2022-08-02T04:30:48.501Z,4.00
2022-08-02T04:33:16.877Z,3.90
2022-08-02T04:35:45.970Z,3.87
2022-08-02T04:38:15.757Z,3.40
2022-08-02T04:40:52.332Z,3.53
2022-08-02T04:43:20.837Z,3.97
2022-08-02T04:45:52.543Z,3.70
2022-08-02T04:48:20.680Z,3.60
2022-08-02T04:50:48.586Z,3.70
2022-08-02T04:53:16.552Z,3.57
2022-08-02T04:55:44.520Z,3.87
2022-08-02T04:58:37.436Z,4.27
2022-08-02T05:01:01.974Z,4.13
2022-08-02T05:03:29.915Z,3.90
2022-08-02T05:05:57.772Z,4.10
2022-08-02T05:08:25.639Z,4.60
2022-08-02T05:10:54.150Z,4.30
2022-08-02T05:13:22.107Z,4.20
2022-08-02T05:15:50.603Z,3.60
2022-08-02T05:18:21.359Z,3.77
2022-08-02T05:20:49.870Z,4.33
2022-08-02T05:23:17.710Z,3.93
2022-08-02T05:25:45.863Z,4.40
2022-08-02T05:28:13.897Z,4.90
2022-08-02T05:30:41.853Z,4.93
2022-08-02T05:33:09.824Z,5.07
2022-08-02T05:35:42.380Z,4.60
2022-08-02T05:38:10.515Z,4.60
2022-08-02T05:40:54.808Z,5.17
2022-08-02T05:43:23.382Z,4.73
2022-08-02T05:45:53.542Z,4.87
2022-08-02T05:48:22.025Z,4.60
2022-08-02T05:51:04.141Z,5.27
2022-08-02T05:53:38.151Z,6.97
2022-08-02T05:56:17.451Z,6.10
2022-08-02T05:58:54.238Z,6.30
2022-08-02T06:01:29.751Z,6.90
2022-08-02T06:04:00.809Z,7.67
2022-08-02T06:06:33.518Z,7.90
2022-08-02T06:09:04.174Z,7.97
2022-08-02T06:11:36.909Z,7.27
2022-08-02T06:14:06.409Z,7.97
2022-08-02T06:16:37.620Z,7.17
2022-08-02T06:19:10.647Z,7.60
2022-08-02T06:22:32.371Z,7.30
2022-08-02T06:24:31.744Z,8.07
2022-08-02T06:27:00.883Z,8.10
2022-08-02T06:29:29.567Z,8.17
2022-08-02T06:31:58.057Z,9.40
2022-08-02T06:34:26.122Z,8.40
2022-08-02T06:37:07.624Z,7.80
2022-08-02T06:39:44.684Z,9.43
2022-08-02T06:42:16.527Z,8.53
2022-08-02T06:44:57.680Z,8.15
2022-08-02T06:47:25.933Z,8.32
2022-08-02T06:49:54.946Z,7.28
2022-08-02T06:52:30.961Z,7.93
2022-08-02T06:55:00.852Z,7.65
2022-08-02T06:57:29.198Z,7.85
2022-08-02T06:59:57.106Z,6.72
2022-08-02T07:02:25.412Z,7.15
2022-08-02T07:04:53.520Z,6.45
2022-08-02T07:07:21.509Z,6.60
2022-08-02T07:09:56.984Z,8.05
2022-08-02T07:12:31.003Z,6.53
2022-08-02T07:14:59.573Z,5.97
2022-08-02T07:17:27.734Z,7.07
2022-08-02T07:19:55.734Z,6.15
2022-08-02T07:22:24.631Z,6.32
2022-08-02T07:24:54.978Z,5.93
2022-08-02T07:27:23.296Z,5.57
2022-08-02T07:29:51.268Z,5.93
2022-08-02T07:32:19.897Z,4.82
2022-08-02T07:34:52.742Z,5.30
2022-08-02T07:37:35.877Z,5.25
2022-08-02T07:40:15.279Z,4.90
2022-08-02T07:42:48.845Z,5.50
2022-08-02T07:45:16.859Z,5.03
2022-08-02T07:47:45.928Z,5.00
2022-08-02T07:50:15.493Z,4.75
2022-08-02T07:52:44.377Z,4.38
2022-08-02T07:55:15.140Z,3.97
2022-08-02T07:57:46.443Z,4.00
2022-08-02T08:00:17.216Z,3.70
2022-08-02T08:02:45.679Z,3.35
2022-08-02T08:05:14.056Z,3.30
2022-08-02T08:07:42.246Z,3.50
2022-08-02T08:10:11.212Z,2.70
2022-08-02T08:12:40.649Z,3.10
2022-08-02T08:15:09.586Z,3.10
2022-08-02T08:17:38.390Z,3.15
2022-08-02T08:20:07.551Z,3.08
2022-08-02T08:22:35.523Z,3.20
2022-08-02T08:25:04.102Z,3.10
2022-08-02T08:27:32.312Z,3.30
2022-08-02T08:30:01.580Z,3.70
2022-08-02T08:32:29.567Z,3.45
2022-08-02T08:34:57.528Z,3.20
2022-08-02T08:37:25.456Z,4.13
2022-08-02T08:39:57.154Z,3.75
2022-08-02T08:42:27.355Z,4.18
2022-08-02T08:44:56.109Z,4.22
2022-08-02T08:47:33.800Z,3.55
2022-08-02T08:50:05.534Z,3.60
2022-08-02T08:52:37.155Z,4.60
2022-08-02T08:55:06.834Z,4.65
2022-08-02T08:57:38.579Z,4.30
2022-08-02T09:00:07.636Z,4.57
2022-08-02T09:02:37.770Z,6.10
2022-08-02T09:05:06.523Z,6.05
2022-08-02T09:07:34.415Z,5.90
2022-08-02T09:10:02.345Z,5.88
2022-08-02T09:12:30.272Z,5.43
2022-08-02T09:14:58.256Z,5.38
2022-08-02T09:17:26.168Z,6.38
2022-08-02T09:20:09.629Z,5.18
2022-08-02T09:22:37.600Z,5.22
2022-08-02T09:25:06.266Z,5.10
2022-08-02T09:27:38.171Z,5.53
2022-08-02T09:30:15.500Z,5.22
2022-08-02T09:32:50.053Z,5.43
2022-08-02T09:36:06.828Z,4.30
2022-08-02T09:38:25.953Z,4.25
2022-08-02T09:40:54.274Z,4.97
2022-08-02T09:43:22.484Z,4.68
2022-08-02T09:45:50.355Z,4.30
2022-08-02T09:48:18.270Z,4.10
2022-08-02T09:50:47.524Z,3.75
2022-08-02T09:53:15.555Z,3.90
2022-08-02T09:55:43.954Z,4.25
2022-08-02T09:58:19.478Z,4.30
2022-08-02T10:00:55.011Z,4.50
2022-08-02T10:03:23.048Z,3.90
2022-08-02T10:06:03.121Z,4.10
2022-08-02T10:08:33.515Z,3.97
2022-08-02T10:11:02.598Z,4.47
2022-08-02T10:13:32.606Z,4.20
2022-08-02T10:16:00.578Z,3.72
2022-08-02T10:18:38.768Z,3.50
2022-08-02T10:21:14.725Z,3.40
2022-08-02T10:23:45.636Z,3.03
2022-08-02T10:26:18.790Z,3.22
2022-08-02T10:28:49.570Z,3.08
2022-08-02T10:31:24.663Z,3.10
2022-08-02T10:33:55.303Z,3.30
2022-08-02T10:36:27.315Z,2.67
2022-08-02T10:38:58.678Z,3.10
2022-08-02T10:41:43.663Z,2.95
2022-08-02T10:44:24.503Z,3.20
2022-08-02T10:46:53.689Z,2.60
2022-08-02T10:49:40.012Z,2.60
2022-08-02T10:52:11.066Z,2.75
2022-08-02T10:54:41.005Z,2.78
2022-08-02T10:57:21.347Z,2.60
2022-08-02T10:59:50.822Z,2.33
2022-08-02T11:02:45.119Z,2.53
2022-08-02T11:05:18.107Z,3.20
2022-08-02T11:07:49.638Z,2.63
2022-08-02T11:10:38.972Z,4.00
2022-08-02T11:13:15.135Z,2.85
2022-08-02T11:15:59.192Z,2.47
2022-08-02T11:19:00.573Z,3.20
2022-08-02T11:21:30.280Z,3.17
2022-08-02T11:24:31.261Z,2.70
2022-08-02T11:27:00.323Z,2.60
2022-08-02T11:29:39.994Z,2.30
2022-08-02T11:32:16.207Z,2.60
2022-08-02T11:34:45.599Z,2.40
2022-08-02T11:37:13.621Z,2.45
2022-08-02T11:39:51.610Z,2.42
2022-08-02T11:42:19.684Z,2.60
2022-08-02T11:44:49.303Z,3.05
2022-08-02T11:47:17.177Z,2.47
2022-08-02T11:49:45.530Z,2.30
2022-08-02T11:52:13.743Z,2.45
2022-08-02T11:54:44.728Z,2.67
2022-08-02T11:57:19.263Z,8.02
2022-08-02T11:59:51.537Z,2.83
2022-08-02T12:02:20.929Z,2.70
2022-08-02T12:04:58.526Z,2.55
2022-08-02T12:07:34.746Z,3.50
2022-08-02T12:10:09.989Z,3.00
2022-08-02T12:12:50.984Z,2.60
2022-08-02T12:15:34.259Z,2.60
2022-08-02T12:18:20.342Z,3.88
2022-08-02T12:20:48.513Z,3.08
2022-08-02T12:23:16.748Z,3.30
2022-08-02T12:25:46.333Z,2.40
2022-08-02T12:28:17.745Z,2.42
2022-08-02T12:30:54.600Z,2.30
2022-08-02T12:33:23.726Z,2.30
2022-08-02T12:35:52.868Z,2.70
2022-08-02T12:38:21.212Z,2.28
2022-08-02T12:40:50.827Z,2.70
2022-08-02T12:43:21.507Z,2.28
2022-08-02T12:45:53.439Z,2.00
2022-08-02T12:48:37.686Z,2.63
2022-08-02T12:51:20.598Z,2.63
2022-08-02T12:53:59.862Z,2.80
2022-08-02T12:56:31.746Z,2.13
2022-08-02T12:59:00.140Z,2.20
2022-08-02T13:01:29.913Z,2.22
2022-08-02T13:04:10.056Z,2.35
2022-08-02T13:06:44.450Z,2.50
2022-08-02T13:09:16.052Z,2.15
2022-08-02T13:11:48.120Z,2.40
2022-08-02T13:14:16.657Z,2.50
2022-08-02T13:16:46.391Z,2.70
2022-08-02T13:19:15.593Z,2.10
2022-08-02T13:22:11.197Z,2.30
2022-08-02T13:24:40.076Z,2.05
2022-08-02T13:27:23.714Z,2.70
2022-08-02T13:29:51.792Z,2.95
2022-08-02T13:32:23.798Z,2.42
2022-08-02T13:34:52.095Z,2.30
2022-08-02T13:37:20.382Z,2.10
2022-08-02T13:40:11.853Z,1.90
2022-08-02T13:42:41.651Z,2.00
2022-08-02T13:45:12.044Z,2.00
2022-08-02T13:47:57.430Z,1.80
2022-08-02T13:50:31.206Z,2.47
2022-08-02T13:53:01.635Z,1.95
2022-08-02T13:55:29.596Z,2.10
2022-08-02T13:57:59.278Z,2.00
2022-08-02T14:00:35.828Z,1.98
2022-08-02T14:03:07.826Z,2.10
2022-08-02T14:05:48.182Z,2.10
2022-08-02T14:08:17.959Z,2.13
2022-08-02T14:10:46.962Z,1.90
2022-08-02T14:13:16.876Z,2.55
2022-08-02T14:15:45.412Z,2.60
2022-08-02T14:18:14.906Z,21.20
2022-08-02T14:20:43.080Z,2.22
2022-08-02T14:23:10.936Z,2.63
2022-08-02T14:25:39.090Z,2.30
2022-08-02T14:28:07.136Z,2.13
2022-08-02T14:30:37.015Z,2.30
2022-08-02T14:33:05.151Z,2.47
2022-08-02T14:35:33.369Z,2.15
2022-08-02T14:38:01.355Z,2.10
2022-08-02T14:40:31.649Z,2.10
2022-08-02T14:43:00.907Z,2.13
2022-08-02T14:45:40.961Z,2.15
2022-08-02T14:48:12.421Z,2.13
2022-08-02T14:50:40.721Z,2.20
2022-08-02T14:53:12.466Z,2.15
2022-08-02T14:55:43.938Z,2.00
2022-08-02T14:58:12.285Z,2.00
2022-08-02T15:00:43.743Z,2.15
2022-08-02T15:03:15.645Z,2.17
2022-08-02T15:05:43.631Z,2.20
2022-08-02T15:08:11.716Z,1.90
2022-08-02T15:10:45.461Z,2.30
2022-08-02T15:13:13.507Z,2.03
2022-08-02T15:15:43.704Z,2.10
2022-08-02T15:18:14.408Z,1.80
2022-08-02T15:20:47.793Z,2.00
2022-08-02T15:23:37.334Z,1.80
2022-08-02T15:26:07.412Z,1.60
2022-08-02T15:28:35.967Z,1.83
2022-08-02T15:31:03.932Z,1.60
2022-08-02T15:33:33.264Z,1.90
2022-08-02T15:36:01.246Z,1.98
2022-08-02T15:38:29.100Z,1.70
2022-08-02T15:40:58.985Z,2.13
2022-08-02T15:43:27.181Z,1.92
2022-08-02T15:45:55.259Z,1.88
2022-08-02T15:48:23.191Z,2.58
2022-08-02T15:50:52.675Z,1.90
2022-08-02T15:53:22.883Z,1.95
2022-08-02T15:55:52.656Z,1.90
2022-08-02T15:58:34.592Z,1.95
2022-08-02T16:01:12.090Z,2.00
2022-08-02T16:03:40.295Z,2.05
2022-08-02T16:06:09.658Z,1.95
2022-08-02T16:08:51.688Z,1.60
2022-08-02T16:11:22.689Z,2.08
2022-08-02T16:13:56.787Z,1.77
2022-08-02T16:16:26.816Z,1.70
2022-08-02T16:18:55.571Z,2.03
2022-08-02T16:21:25.065Z,1.80
2022-08-02T16:24:01.759Z,1.67
2022-08-02T16:26:31.887Z,1.77
2022-08-02T16:29:00.522Z,1.50
2022-08-02T16:31:28.625Z,1.80
2022-08-02T16:33:57.434Z,1.65
2022-08-02T16:36:28.077Z,1.85
2022-08-02T16:38:56.765Z,1.80
2022-08-02T16:41:50.716Z,1.80
2022-08-02T16:44:15.742Z,1.63
2022-08-02T16:46:45.443Z,1.70
2022-08-02T16:50:04.956Z,1.60
2022-08-02T16:52:06.104Z,1.42
2022-08-02T16:54:38.266Z,1.50
2022-08-02T16:57:07.636Z,1.40
2022-08-02T16:59:42.139Z,1.45
2022-08-02T17:02:18.094Z,1.48
2022-08-02T17:04:46.568Z,1.60
2022-08-02T17:08:06.377Z,1.48
2022-08-02T17:10:06.454Z,2.00
2022-08-02T17:12:37.260Z,1.42
2022-08-02T17:16:07.641Z,1.90
2022-08-02T17:17:54.372Z,1.50
2022-08-02T17:20:23.518Z,1.50
2022-08-02T17:22:53.829Z,1.40
2022-08-02T17:25:22.268Z,1.40
2022-08-02T17:27:56.014Z,1.35
2022-08-02T17:30:26.542Z,1.20
2022-08-02T17:32:57.663Z,1.80
2022-08-02T17:35:51.851Z,1.40
2022-08-02T17:38:26.634Z,1.50
2022-08-02T17:40:56.126Z,1.80
2022-08-02T17:43:32.744Z,1.55
2022-08-02T17:46:02.496Z,1.50
2022-08-02T17:48:55.056Z,1.70
2022-08-02T17:52:16.133Z,1.73
2022-08-02T17:54:13.814Z,2.95
2022-08-02T17:56:42.537Z,1.65
2022-08-02T17:59:20.917Z,2.53
2022-08-02T18:01:52.846Z,1.50
2022-08-02T18:04:27.575Z,3.30
2022-08-02T18:06:57.849Z,1.40
2022-08-02T18:09:28.136Z,1.55
2022-08-02T18:11:56.656Z,1.60
2022-08-02T18:14:26.425Z,1.50
2022-08-02T18:16:54.533Z,1.70
2022-08-02T18:19:22.586Z,2.05
2022-08-02T18:21:50.712Z,1.60
2022-08-02T18:24:19.431Z,1.40
2022-08-02T18:26:53.488Z,1.60
2022-08-02T18:29:21.411Z,1.70
2022-08-02T18:32:00.616Z,1.90
2022-08-02T18:34:31.506Z,1.70
2022-08-02T18:36:59.537Z,1.70
2022-08-02T18:39:27.742Z,1.50
2022-08-02T18:42:02.510Z,1.67
2022-08-02T18:44:31.141Z,1.48
2022-08-02T18:46:59.197Z,1.90
2022-08-02T18:52:31.206Z,1.60
2022-08-02T18:54:59.597Z,1.73
2022-08-02T18:58:17.279Z,1.88
2022-08-02T19:00:26.452Z,1.75
2022-08-02T19:02:55.043Z,1.70
2022-08-02T19:05:24.339Z,1.70
2022-08-02T19:08:12.372Z,1.65
2022-08-02T19:10:49.083Z,1.60
2022-08-02T19:13:19.545Z,1.70
2022-08-02T19:15:48.190Z,1.50
2022-08-02T19:18:16.165Z,1.63
2022-08-02T19:20:48.374Z,1.90
2022-08-02T19:23:17.139Z,1.65
2022-08-02T19:25:54.523Z,1.85
2022-08-02T19:28:26.793Z,1.70
2022-08-02T19:30:55.404Z,1.80
2022-08-02T19:33:54.310Z,1.80
2022-08-02T19:36:11.957Z,2.35
2022-08-02T19:38:43.968Z,2.40
2022-08-02T19:41:13.605Z,2.25
2022-08-02T19:44:24.131Z,3.13
2022-08-02T19:46:31.280Z,2.03
2022-08-02T19:49:20.124Z,1.65
2022-08-02T19:51:55.437Z,2.15
2022-08-02T19:54:54.185Z,2.13
2022-08-02T19:57:17.008Z,1.77
2022-08-02T19:59:49.662Z,2.08
2022-08-02T20:02:18.626Z,1.70
2022-08-02T20:04:50.301Z,1.83
2022-08-02T20:07:54.491Z,2.10
2022-08-02T20:10:10.827Z,1.60
2022-08-02T20:12:39.785Z,1.70
2022-08-02T20:15:14.698Z,1.70
2022-08-02T20:17:47.458Z,2.00
2022-08-02T20:20:16.986Z,2.33
2022-08-02T20:23:03.879Z,2.08
2022-08-02T20:25:53.978Z,2.25
2022-08-02T20:28:23.382Z,2.95
2022-08-02T20:30:53.158Z,2.35
2022-08-02T20:33:24.480Z,2.55
2022-08-02T20:35:53.141Z,2.50
2022-08-02T20:38:24.829Z,2.80
2022-08-02T20:40:55.925Z,2.65
2022-08-02T20:43:31.447Z,2.50
2022-08-02T20:46:07.416Z,2.75
2022-08-02T20:48:36.516Z,2.25
2022-08-02T20:51:09.677Z,2.33
2022-08-02T20:53:56.026Z,2.88
2022-08-02T20:56:24.756Z,3.20
2022-08-02T20:58:53.930Z,2.45
2022-08-02T21:01:36.868Z,2.50
2022-08-02T21:04:05.707Z,2.40
2022-08-02T21:06:34.390Z,2.80
2022-08-02T21:09:06.935Z,2.85
2022-08-02T21:11:35.976Z,3.42
2022-08-02T21:14:08.769Z,3.10
2022-08-02T21:16:38.938Z,3.53
2022-08-02T21:19:08.074Z,3.70
2022-08-02T21:21:38.331Z,4.13
2022-08-02T21:24:06.818Z,4.10
2022-08-02T21:26:39.730Z,4.22
2022-08-02T21:29:09.715Z,3.97
2022-08-02T21:31:44.113Z,3.95
2022-08-02T21:34:22.531Z,3.75
2022-08-02T21:36:55.922Z,3.75
2022-08-02T21:39:24.092Z,2.95
2022-08-02T21:41:53.028Z,3.53
2022-08-02T21:44:22.798Z,3.53
2022-08-02T21:46:54.383Z,3.60
2022-08-02T21:49:40.566Z,3.83
2022-08-02T21:52:16.517Z,3.10
2022-08-02T21:54:45.470Z,3.40
2022-08-02T21:57:16.161Z,3.33
2022-08-02T21:59:45.606Z,2.97
2022-08-02T22:02:16.475Z,3.42
2022-08-02T22:04:47.989Z,3.50
2022-08-02T22:07:17.796Z,2.88
2022-08-02T22:09:52.143Z,3.08
2022-08-02T22:12:26.162Z,3.03
2022-08-02T22:14:56.542Z,2.80
2022-08-02T22:17:51.063Z,2.83
2022-08-02T22:20:20.216Z,2.90
2022-08-02T22:22:50.712Z,2.95
2022-08-02T22:25:26.431Z,3.00
2022-08-02T22:28:37.281Z,3.00
2022-08-02T22:30:56.657Z,2.47
2022-08-02T22:34:00.709Z,2.72
2022-08-02T22:36:30.584Z,2.72
2022-08-02T22:38:58.978Z,2.85
2022-08-02T22:42:00.880Z,2.67
2022-08-02T22:44:18.476Z,2.80
2022-08-02T22:46:46.997Z,2.95
2022-08-02T22:49:38.579Z,2.70
2022-08-02T22:52:07.948Z,2.78
2022-08-02T22:54:35.858Z,2.88
2022-08-02T22:57:03.887Z,2.80
2022-08-02T22:59:00.084Z,1.40
2022-08-02T22:59:35.992Z,2.63
2022-08-02T23:02:08.272Z,2.63
2022-08-02T23:04:37.726Z,2.92
2022-08-02T23:07:05.803Z,2.72
2022-08-02T23:09:33.812Z,2.78
2022-08-02T23:12:02.108Z,2.63
2022-08-02T23:14:30.262Z,2.47
2022-08-02T23:17:15.787Z,2.70
2022-08-02T23:19:55.474Z,2.47
2022-08-02T23:22:30.127Z,2.53
2022-08-02T23:25:01.471Z,2.63
2022-08-02T23:27:30.092Z,3.00
2022-08-02T23:29:58.011Z,2.80
2022-08-02T23:32:26.284Z,2.80
2022-08-02T23:34:55.761Z,2.80
2022-08-02T23:37:23.968Z,3.00
2022-08-02T23:39:52.401Z,2.72
2022-08-02T23:42:20.463Z,2.63
2022-08-02T23:44:48.384Z,2.72
2022-08-02T23:47:16.961Z,2.72
2022-08-02T23:49:45.285Z,2.55
2022-08-02T23:52:14.940Z,2.80
2022-08-02T23:54:43.168Z,3.17
2022-08-02T23:57:19.612Z,2.50
2022-08-02T23:59:49.108Z,2.72
